Time;durP1;ratioP1;P1;durP2;ratioP2;P2;SDS_P1;SDS_P2;PMS_P1;PMS_P2;Temp;Humidity;BMP_temperature;BMP_pressure;BME280_temperature;BME280_humidity;BME280_pressure;Samples;Min_cycle;Max_cycle;Signal;HPM_P1;HPM_P2
2022/06/16 00:00:36;;;;;;;11.20;5.68;;;12.50;99.90;;;;;;4879809;28;90047;-35
2022/06/16 00:03:04;;;;;;;7.55;4.75;;;12.50;99.90;;;;;;4882239;28;89467;-33
2022/06/16 00:05:34;;;;;;;11.05;5.45;;;12.50;99.90;;;;;;4883046;28;90002;-34
2022/06/16 00:08:00;;;;;;;6.70;4.75;;;12.50;99.90;;;;;;4882820;28;91604;-34
2022/06/16 00:10:26;;;;;;;6.28;5.68;;;12.50;99.90;;;;;;4882979;28;89712;-33
2022/06/16 00:12:52;;;;;;;7.30;4.85;;;12.50;99.90;;;;;;4881716;28;89527;-36
2022/06/16 00:15:21;;;;;;;6.70;5.53;;;12.50;99.90;;;;;;4881921;28;89856;-33
2022/06/16 00:17:47;;;;;;;5.35;4.85;;;12.50;99.90;;;;;;4882347;28;90400;-37
2022/06/16 00:20:13;;;;;;;7.68;5.45;;;12.50;99.90;;;;;;4882420;28;88274;-32
2022/06/16 00:22:39;;;;;;;13.35;6.55;;;12.50;99.90;;;;;;4882123;28;89390;-34
2022/06/16 00:25:06;;;;;;;8.60;6.05;;;12.50;99.90;;;;;;4882747;28;87830;-34
2022/06/16 00:27:32;;;;;;;6.28;5.45;;;12.50;99.90;;;;;;4882413;28;90331;-33
2022/06/16 00:29:59;;;;;;;15.27;6.60;;;12.50;99.90;;;;;;4881882;28;90211;-33
2022/06/16 00:32:24;;;;;;;6.00;5.35;;;12.40;99.90;;;;;;4882711;28;90335;-34
2022/06/16 00:34:50;;;;;;;7.65;5.93;;;12.40;99.90;;;;;;4881802;28;88737;-33
2022/06/16 00:37:15;;;;;;;8.00;6.13;;;12.40;99.90;;;;;;4881851;28;90987;-36
2022/06/16 00:39:41;;;;;;;13.43;6.43;;;12.40;99.90;;;;;;4880950;28;89384;-38
2022/06/16 00:42:15;;;;;;;9.43;7.35;;;12.40;99.90;;;;;;4882172;28;90690;-38
2022/06/16 00:44:44;;;;;;;8.52;6.47;;;12.40;99.90;;;;;;4882215;28;88763;-37
2022/06/16 00:47:10;;;;;;;6.72;6.07;;;12.40;99.90;;;;;;4881630;28;90514;-35
2022/06/16 00:49:41;;;;;;;6.72;5.97;;;12.40;99.90;;;;;;4881640;28;90215;-36
2022/06/16 00:52:17;;;;;;;8.88;6.03;;;12.30;99.90;;;;;;4881276;28;89425;-34
2022/06/16 00:55:13;;;;;;;7.72;5.65;;;12.30;99.90;;;;;;4882404;28;88803;-33
2022/06/16 00:57:43;;;;;;;9.52;6.00;;;12.30;99.90;;;;;;4880801;28;90426;-35
2022/06/16 01:02:44;;;;;;;7.70;5.13;;;12.40;99.90;;;;;;5001934;28;89705;-34
2022/06/16 01:05:10;;;;;;;9.07;3.88;;;12.40;99.90;;;;;;5002507;28;88118;-35
2022/06/16 01:07:40;;;;;;;10.77;4.63;;;12.40;99.90;;;;;;5002014;28;90004;-35
2022/06/16 01:10:07;;;;;;;6.85;4.32;;;12.40;99.90;;;;;;5002214;28;88334;-35
2022/06/16 01:15:42;;;;;;;6.90;5.57;;;12.40;99.90;;;;;;5001825;28;89405;-36
2022/06/16 01:18:10;;;;;;;;;;;12.30;99.90;;;;;;5002851;28;90152;-33
2022/06/16 01:20:51;;;;;;;6.90;5.03;;;12.20;99.90;;;;;;5003459;28;90802;-34
2022/06/16 01:23:29;;;;;;;6.93;5.30;;;12.10;99.90;;;;;;5002046;28;89594;-34
2022/06/16 01:26:22;;;;;;;9.30;5.90;;;12.10;99.90;;;;;;5002480;28;88931;-38
2022/06/16 01:28:59;;;;;;;5.05;4.03;;;12.10;99.90;;;;;;5001445;28;90148;-35
2022/06/16 01:31:40;;;;;;;5.30;4.43;;;12.10;99.90;;;;;;5001623;28;90207;-33
2022/06/16 01:34:26;;;;;;;5.22;4.68;;;12.10;99.90;;;;;;5002113;28;90348;-35
2022/06/16 01:37:28;;;;;;;8.35;4.78;;;12.10;99.90;;;;;;5001309;28;88722;-34
2022/06/16 01:40:25;;;;;;;5.40;4.90;;;12.00;99.90;;;;;;4993832;28;91943;-36
2022/06/16 01:43:23;;;;;;;9.00;5.45;;;12.00;99.90;;;;;;5001472;28;89169;-36
2022/06/16 01:45:58;;;;;;;8.75;5.45;;;12.00;99.90;;;;;;4992422;28;89167;-36
2022/06/16 01:48:27;;;;;;;6.63;4.85;;;11.90;99.90;;;;;;4991454;28;90132;-37
2022/06/16 01:51:00;;;;;;;7.22;5.97;;;11.90;99.90;;;;;;4997819;28;90460;-34
2022/06/16 01:53:42;;;;;;;7.47;5.65;;;11.80;99.90;;;;;;5001769;28;88962;-34
2022/06/16 01:56:18;;;;;;;7.32;6.45;;;11.70;99.90;;;;;;5001981;28;89791;-33
2022/06/16 01:58:50;;;;;;;6.95;5.78;;;11.70;99.90;;;;;;5001510;28;89257;-33
2022/06/16 02:01:19;;;;;;;8.73;6.95;;;11.60;99.90;;;;;;5001304;28;90564;-36
2022/06/16 02:03:48;;;;;;;;;;;11.60;99.90;;;;;;5002184;28;89569;-35
2022/06/16 02:06:36;;;;;;;8.55;7.30;;;11.60;99.90;;;;;;5003455;28;88655;-36
2022/06/16 02:09:12;;;;;;;8.32;6.10;;;11.60;99.90;;;;;;5001732;28;87664;-34
2022/06/16 02:11:40;;;;;;;11.27;5.88;;;11.60;99.90;;;;;;4999545;28;88773;-33
2022/06/16 02:14:25;;;;;;;7.93;7.00;;;11.60;99.90;;;;;;5001253;28;89796;-33
2022/06/16 02:16:52;;;;;;;7.53;6.35;;;11.60;99.90;;;;;;5001705;28;89682;-34
2022/06/16 02:19:20;;;;;;;9.35;7.18;;;11.60;99.90;;;;;;5002008;28;88663;-34
2022/06/16 02:21:49;;;;;;;7.85;7.15;;;11.60;99.90;;;;;;5000270;28;90256;-35
2022/06/16 02:24:16;;;;;;;;;;;11.60;99.90;;;;;;5001260;28;90708;-36
2022/06/16 02:26:43;;;;;;;6.90;6.13;;;11.60;99.90;;;;;;5002103;28;90185;-34
2022/06/16 02:29:26;;;;;;;7.43;6.65;;;11.50;99.90;;;;;;5001912;28;88491;-34
2022/06/16 02:32:13;;;;;;;8.45;6.80;;;11.50;99.90;;;;;;5000609;28;90378;-36
2022/06/16 02:34:38;;;;;;;8.00;6.63;;;11.50;99.90;;;;;;5000337;28;89931;-38
2022/06/16 02:37:23;;;;;;;7.60;6.30;;;11.60;99.90;;;;;;5000757;28;89052;-33
2022/06/16 02:40:16;;;;;;;8.70;5.60;;;11.70;99.90;;;;;;5000633;28;89965;-34
2022/06/16 02:43:05;;;;;;;7.95;5.18;;;11.70;99.90;;;;;;4990052;28;90352;-34
2022/06/16 02:45:46;;;;;;;7.45;5.50;;;11.70;99.90;;;;;;5000727;28;89556;-34
2022/06/16 02:48:20;;;;;;;10.63;6.40;;;11.70;99.90;;;;;;5000291;28;89010;-37
2022/06/16 02:51:01;;;;;;;8.30;6.35;;;11.80;99.90;;;;;;5000251;28;89617;-35
2022/06/16 02:54:10;;;;;;;9.30;6.68;;;11.70;99.90;;;;;;5001522;28;90227;-34
2022/06/16 02:56:54;;;;;;;6.28;5.22;;;11.70;99.90;;;;;;4990781;28;89839;-38
2022/06/16 02:59:25;;;;;;;8.65;6.32;;;11.70;99.90;;;;;;5000135;28;89428;-36
2022/06/16 03:01:51;;;;;;;8.75;6.03;;;11.70;99.90;;;;;;5000922;28;88159;-33
2022/06/16 03:04:18;;;;;;;7.82;6.25;;;11.70;99.90;;;;;;5000153;28;90260;-33
2022/06/16 03:06:45;;;;;;;6.97;5.60;;;11.60;99.90;;;;;;5000747;28;88275;-37
2022/06/16 03:09:12;;;;;;;13.38;6.00;;;11.60;99.90;;;;;;5000978;28;90144;-33
2022/06/16 03:11:39;;;;;;;6.97;6.28;;;11.60;99.90;;;;;;5000033;28;89162;-34
2022/06/16 03:14:05;;;;;;;6.32;5.82;;;11.60;99.90;;;;;;5000301;28;90252;-36
2022/06/16 03:16:32;;;;;;;5.85;4.95;;;11.60;99.90;;;;;;5000240;28;90212;-36
2022/06/16 03:18:58;;;;;;;9.35;6.28;;;11.60;99.90;;;;;;5000127;28;92159;-34
2022/06/16 03:21:23;;;;;;;5.63;4.95;;;11.60;99.90;;;;;;5000719;28;88906;-34
2022/06/16 03:23:49;;;;;;;8.63;6.47;;;11.70;99.90;;;;;;4999478;28;90004;-33
2022/06/16 03:26:15;;;;;;;9.75;5.85;;;11.70;99.90;;;;;;4999551;28;89701;-34
2022/06/16 03:28:40;;;;;;;6.75;5.38;;;11.70;99.90;;;;;;5000902;28;89431;-34
2022/06/16 03:31:06;;;;;;;6.93;6.10;;;11.70;99.90;;;;;;5000900;28;89690;-33
2022/06/16 03:33:32;;;;;;;7.43;6.20;;;11.70;99.90;;;;;;5000248;28;90366;-35
2022/06/16 03:35:57;;;;;;;9.05;6.45;;;11.70;99.90;;;;;;5000014;28;89702;-33
2022/06/16 03:40:49;;;;;;;5.80;5.20;;;11.70;99.90;;;;;;4999865;28;90314;-32
2022/06/16 03:43:15;;;;;;;7.05;5.72;;;11.70;99.90;;;;;;4999887;28;90120;-33
2022/06/16 03:45:40;;;;;;;10.52;5.63;;;11.70;99.90;;;;;;4999630;28;89611;-36
2022/06/16 03:48:06;;;;;;;7.43;5.18;;;11.80;99.90;;;;;;4999003;28;89630;-36
2022/06/16 03:50:32;;;;;;;8.90;5.97;;;11.80;99.90;;;;;;5000085;28;89835;-34
2022/06/16 03:52:58;;;;;;;7.47;6.78;;;11.80;99.90;;;;;;4999666;28;90207;-34
2022/06/16 03:55:24;;;;;;;10.00;8.35;;;11.80;99.90;;;;;;4999609;28;89415;-38
2022/06/16 03:57:50;;;;;;;8.07;6.60;;;11.80;99.90;;;;;;5000286;28;89345;-32
2022/06/16 04:00:17;;;;;;;10.95;6.68;;;11.80;99.90;;;;;;4999874;28;89471;-34
2022/06/16 04:02:43;;;;;;;9.40;6.22;;;11.80;99.90;;;;;;4999175;28;91234;-34
2022/06/16 04:05:09;;;;;;;8.38;5.55;;;11.90;99.90;;;;;;4999352;28;91071;-34
2022/06/16 04:07:35;;;;;;;8.35;6.38;;;11.90;99.90;;;;;;4999219;28;90323;-38
2022/06/16 04:10:04;;;;;;;11.77;5.93;;;11.80;99.90;;;;;;5000369;28;88911;-39
2022/06/16 04:12:29;;;;;;;8.90;5.03;;;11.90;99.90;;;;;;4999823;28;90761;-34
2022/06/16 04:14:55;;;;;;;12.60;6.18;;;11.90;99.90;;;;;;4999158;28;88634;-33
2022/06/16 04:17:21;;;;;;;6.03;5.25;;;12.00;99.90;;;;;;4999404;28;89573;-38
2022/06/16 04:22:30;;;;;;;8.23;5.63;;;11.90;99.90;;;;;;4999702;28;91141;-33
2022/06/16 04:24:56;;;;;;;6.90;4.80;;;12.00;99.90;;;;;;4999070;28;90006;-34
2022/06/16 04:27:22;;;;;;;11.93;5.75;;;12.00;99.90;;;;;;4998232;28;89398;-37
2022/06/16 04:29:49;;;;;;;8.20;5.65;;;12.10;99.90;;;;;;4998769;28;89247;-34
2022/06/16 04:32:15;;;;;;;9.50;5.68;;;12.10;99.90;;;;;;4999593;28;90409;-35
2022/06/16 04:34:42;;;;;;;7.95;5.75;;;12.20;99.90;;;;;;4998515;28;90078;-38
2022/06/16 04:37:09;;;;;;;9.27;6.27;;;12.30;99.90;;;;;;4998742;28;89145;-35
2022/06/16 04:39:34;;;;;;;9.95;6.40;;;12.40;99.90;;;;;;4999370;28;89429;-39
2022/06/16 04:42:00;;;;;;;13.63;6.82;;;12.60;99.90;;;;;;4999031;28;90184;-35
2022/06/16 04:44:26;;;;;;;9.35;6.30;;;12.80;99.90;;;;;;4999468;28;89497;-33
2022/06/16 04:46:51;;;;;;;10.18;7.65;;;13.10;99.90;;;;;;4998813;28;90149;-36
2022/06/16 04:49:17;;;;;;;13.45;7.75;;;13.40;99.90;;;;;;4998843;28;89068;-34
2022/06/16 04:51:43;;;;;;;8.10;6.53;;;13.60;99.90;;;;;;4999279;28;90503;-33
2022/06/16 04:54:08;;;;;;;8.40;6.55;;;13.80;99.90;;;;;;4997800;28;89883;-33
2022/06/16 04:56:34;;;;;;;8.60;5.80;;;14.00;99.90;;;;;;4999636;28;90180;-34
2022/06/16 04:58:59;;;;;;;12.50;7.13;;;14.30;99.90;;;;;;4999012;28;88522;-37
2022/06/16 05:01:25;;;;;;;8.25;6.30;;;14.50;99.90;;;;;;4998764;28;91209;-35
2022/06/16 05:03:51;;;;;;;10.73;6.43;;;14.80;99.90;;;;;;4998735;28;89619;-36
2022/06/16 05:06:17;;;;;;;8.85;5.90;;;14.90;99.90;;;;;;4998677;28;89862;-37
2022/06/16 05:08:43;;;;;;;8.70;6.35;;;15.20;99.90;;;;;;4999173;28;88792;-36
2022/06/16 05:11:08;;;;;;;10.68;6.90;;;15.50;99.90;;;;;;4998737;28;89975;-35
2022/06/16 05:13:34;;;;;;;12.75;5.50;;;15.40;99.90;;;;;;4998211;28;89476;-38
2022/06/16 05:16:00;;;;;;;11.98;6.72;;;15.30;99.90;;;;;;4998281;28;89735;-34
2022/06/16 05:18:25;;;;;;;9.27;5.30;;;15.40;99.90;;;;;;4998657;28;89544;-33
2022/06/16 05:20:51;;;;;;;5.32;4.82;;;15.60;99.90;;;;;;4999413;28;90129;-35
2022/06/16 05:23:17;;;;;;;6.45;5.32;;;15.70;99.90;;;;;;4998102;28;89464;-34
2022/06/16 05:25:43;;;;;;;5.72;4.72;;;15.60;99.90;;;;;;4998394;28;88445;-33
2022/06/16 05:28:10;;;;;;;5.45;4.60;;;15.60;99.90;;;;;;4998500;28;88993;-35
2022/06/16 05:30:36;;;;;;;8.57;4.47;;;15.70;99.90;;;;;;4997886;28;90189;-35
2022/06/16 05:33:01;;;;;;;5.70;5.20;;;15.80;99.90;;;;;;4998794;28;89732;-36
2022/06/16 05:35:28;;;;;;;5.28;4.75;;;15.70;99.90;;;;;;4998197;28;89549;-37
2022/06/16 05:37:53;;;;;;;11.38;5.45;;;15.70;99.90;;;;;;4998704;28;90601;-34
2022/06/16 05:40:19;;;;;;;6.45;4.28;;;15.80;99.90;;;;;;4998575;28;90432;-36
2022/06/16 05:42:45;;;;;;;9.80;5.65;;;15.90;99.90;;;;;;4997285;28;90560;-37
2022/06/16 05:45:11;;;;;;;7.03;5.57;;;16.00;99.90;;;;;;4998566;28;90585;-34
2022/06/16 05:47:38;;;;;;;7.78;5.68;;;15.90;99.90;;;;;;5000719;28;89766;-34
2022/06/16 05:50:05;;;;;;;7.78;5.25;;;16.00;99.90;;;;;;5001683;28;90973;-37
2022/06/16 05:52:30;;;;;;;6.05;5.13;;;16.00;99.90;;;;;;5001507;28;89848;-37
2022/06/16 05:54:56;;;;;;;11.48;4.88;;;16.20;99.90;;;;;;5001197;28;89319;-37
2022/06/16 05:57:22;;;;;;;10.20;5.30;;;16.40;99.90;;;;;;5001897;28;88236;-34
2022/06/16 05:59:47;;;;;;;5.55;5.05;;;16.40;99.90;;;;;;5000855;28;91158;-35
2022/06/16 06:02:15;;;;;;;8.93;5.80;;;16.50;99.90;;;;;;5000516;28;90279;-33
2022/06/16 06:04:42;;;;;;;8.48;5.72;;;16.50;99.90;;;;;;5001424;28;89806;-36
2022/06/16 06:07:08;;;;;;;8.30;4.88;;;16.50;99.90;;;;;;5001041;28;90106;-32
2022/06/16 06:17:38;;;;;;;6.50;3.75;;;17.10;99.90;;;;;;5001460;28;87785;-37
2022/06/16 06:20:04;;;;;;;8.00;4.75;;;16.90;99.90;;;;;;5001654;28;90286;-35
2022/06/16 06:22:30;;;;;;;10.65;4.32;;;17.00;99.90;;;;;;5001070;28;89741;-35
2022/06/16 06:24:58;;;;;;;5.20;4.07;;;17.30;99.90;;;;;;5001507;28;89267;-35
2022/06/16 06:27:28;;;;;;;7.82;4.53;;;17.20;99.90;;;;;;5001363;28;89152;-35
2022/06/16 06:29:54;;;;;;;6.70;3.38;;;17.30;99.90;;;;;;5001525;28;90103;-33
2022/06/16 06:32:22;;;;;;;6.03;3.97;;;17.60;99.90;;;;;;4999965;28;89854;-36
2022/06/16 06:34:48;;;;;;;4.55;4.15;;;17.40;99.90;;;;;;5000854;28;90422;-38
2022/06/16 06:37:16;;;;;;;5.97;4.63;;;17.60;99.90;;;;;;5001338;28;89653;-33
2022/06/16 06:39:42;;;;;;;6.30;4.28;;;17.90;99.90;;;;;;5000503;28;89905;-35
2022/06/16 06:42:08;;;;;;;8.93;3.95;;;18.20;99.90;;;;;;5000371;28;89843;-35
2022/06/16 06:44:34;;;;;;;5.20;3.88;;;18.50;99.90;;;;;;4989612;28;89462;-37
2022/06/16 06:47:00;;;;;;;4.78;3.33;;;18.70;99.90;;;;;;4999110;28;88013;-35
2022/06/16 06:49:26;;;;;;;6.35;3.78;;;18.90;99.90;;;;;;5001258;28;90212;-36
2022/06/16 06:51:51;;;;;;;6.60;3.90;;;18.60;99.90;;;;;;5000311;28;89882;-36
2022/06/16 06:54:20;;;;;;;6.82;3.33;;;18.70;99.90;;;;;;5000037;28;90102;-35
2022/06/16 06:56:48;;;;;;;7.90;4.28;;;18.80;99.90;;;;;;4999162;28;89733;-38
2022/06/16 06:59:18;;;;;;;5.65;3.60;;;18.60;99.90;;;;;;5000521;28;90228;-34
2022/06/16 07:01:48;;;;;;;4.03;2.72;;;18.80;99.90;;;;;;5000636;28;89725;-34
2022/06/16 07:04:13;;;;;;;6.25;2.92;;;19.10;99.90;;;;;;5000610;28;88604;-34
2022/06/16 07:06:40;;;;;;;4.13;3.47;;;19.20;99.90;;;;;;5000491;28;90513;-33
2022/06/16 07:09:05;;;;;;;4.13;2.90;;;19.40;99.90;;;;;;5000188;28;90498;-34
2022/06/16 07:11:31;;;;;;;4.53;3.03;;;19.30;99.90;;;;;;5000515;28;89498;-37
2022/06/16 07:13:58;;;;;;;5.53;2.55;;;19.60;99.90;;;;;;4999997;28;90174;-34
2022/06/16 07:16:24;;;;;;;9.25;2.80;;;19.70;99.90;;;;;;5000302;28;90389;-35
2022/06/16 07:18:49;;;;;;;5.03;2.63;;;19.60;99.90;;;;;;4999495;28;91666;-34
2022/06/16 07:21:15;;;;;;;4.25;2.28;;;19.70;99.90;;;;;;4983621;28;90564;-34
2022/06/16 07:23:42;;;;;;;4.28;2.33;;;19.90;99.90;;;;;;4981084;28;89391;-35
2022/06/16 07:26:08;;;;;;;2.58;1.98;;;19.50;99.90;;;;;;4990241;28;87986;-36
2022/06/16 07:28:34;;;;;;;2.53;2.05;;;19.70;99.90;;;;;;4992995;28;88974;-38
2022/06/16 07:31:00;;;;;;;2.00;1.90;;;19.60;99.90;;;;;;4984401;28;90072;-35
2022/06/16 07:33:26;;;;;;;5.15;1.83;;;19.90;99.90;;;;;;4991326;28;89877;-36
2022/06/16 07:35:53;;;;;;;1.42;1.30;;;19.70;99.90;;;;;;4998656;28;89977;-35
2022/06/16 07:38:20;;;;;;;5.30;2.28;;;19.90;99.90;;;;;;4998241;28;90113;-34
2022/06/16 07:40:46;;;;;;;1.73;1.60;;;19.80;99.90;;;;;;4997309;28;89823;-36
2022/06/16 07:43:12;;;;;;;1.98;1.40;;;20.10;99.90;;;;;;4997836;28;89807;-38
2022/06/16 07:45:39;;;;;;;1.52;1.33;;;20.40;99.90;;;;;;4997726;28;90211;-34
2022/06/16 07:48:06;;;;;;;2.58;1.55;;;20.30;99.90;;;;;;4997836;28;90006;-37
2022/06/16 07:50:36;;;;;;;2.08;1.88;;;20.10;95.90;;;;;;4997730;28;89340;-38
2022/06/16 07:53:04;;;;;;;2.15;1.20;;;20.30;99.90;;;;;;4997485;28;89374;-36
2022/06/16 07:55:30;;;;;;;2.88;1.42;;;20.70;99.90;;;;;;4998518;28;89897;-33
2022/06/16 07:57:55;;;;;;;3.53;1.58;;;20.70;99.90;;;;;;4997576;28;90652;-33
2022/06/16 08:00:31;;;;;;;5.38;1.85;;;20.60;93.40;;;;;;4997804;28;89358;-33
2022/06/16 08:02:56;;;;;;;1.83;1.42;;;20.50;99.40;;;;;;4997591;28;89457;-36
2022/06/16 08:05:23;;;;;;;2.25;1.33;;;20.50;99.30;;;;;;4997470;28;88819;-35
2022/06/16 08:07:48;;;;;;;2.33;1.60;;;20.60;96.70;;;;;;4997729;28;90221;-34
2022/06/16 08:10:18;;;;;;;3.08;1.17;;;20.20;84.90;;;;;;4996573;28;90648;-35
2022/06/16 08:12:44;;;;;;;1.75;1.33;;;20.30;93.80;;;;;;4997125;28;91119;-36
2022/06/16 08:15:11;;;;;;;1.60;1.50;;;20.60;90.70;;;;;;4997242;28;88588;-36
2022/06/16 08:17:40;;;;;;;6.22;1.75;;;20.70;91.30;;;;;;4997431;28;90687;-34
2022/06/16 08:20:06;;;;;;;4.88;1.90;;;21.00;94.00;;;;;;4997626;28;89715;-38
2022/06/16 08:22:33;;;;;;;4.60;1.67;;;21.00;78.70;;;;;;4997039;28;90138;-34
2022/06/16 08:24:59;;;;;;;2.33;1.52;;;20.60;88.60;;;;;;4996125;28;89742;-38
2022/06/16 08:27:31;;;;;;;3.40;1.73;;;21.00;90.00;;;;;;4997184;28;89978;-33
2022/06/16 08:29:57;;;;;;;2.63;1.55;;;21.40;91.00;;;;;;4997175;28;88461;-33
2022/06/16 08:32:23;;;;;;;5.70;1.48;;;21.60;87.90;;;;;;4997967;28;90703;-33
2022/06/16 08:34:50;;;;;;;3.20;1.80;;;21.50;91.20;;;;;;4996003;28;89394;-34
2022/06/16 08:37:17;;;;;;;2.25;1.45;;;21.50;88.30;;;;;;4992044;28;89642;-35
2022/06/16 08:39:43;;;;;;;1.73;1.60;;;21.70;83.80;;;;;;4991803;28;90133;-36
2022/06/16 08:42:19;;;;;;;2.20;1.60;;;21.80;89.00;;;;;;4997044;28;89999;-34
2022/06/16 08:44:53;;;;;;;1.88;1.25;;;22.10;90.20;;;;;;4997419;28;89685;-33
2022/06/16 08:47:22;;;;;;;2.85;2.30;;;22.60;88.30;;;;;;4995989;28;92301;-36
2022/06/16 08:50:08;;;;;;;3.75;1.65;;;22.70;84.90;;;;;;4996926;28;89605;-33
2022/06/16 08:53:07;;;;;;;2.45;1.67;;;22.80;82.50;;;;;;4996927;28;89548;-37
2022/06/16 08:55:42;;;;;;;2.50;2.10;;;22.60;72.90;;;;;;4995618;28;88559;-38
2022/06/16 08:58:20;;;;;;;3.90;1.92;;;22.70;81.10;;;;;;4997216;28;91127;-37
2022/06/16 09:00:52;;;;;;;4.50;2.38;;;22.70;77.10;;;;;;4995773;28;90277;-36
2022/06/16 09:03:48;;;;;;;2.13;2.03;;;22.10;72.90;;;;;;4996678;28;90674;-35
2022/06/16 09:06:41;;;;;;;2.97;2.33;;;21.80;91.10;;;;;;4997560;28;87712;-36
2022/06/16 09:12:50;;;;;;;2.95;2.13;;;21.80;72.60;;;;;;4996791;28;89590;-35
2022/06/16 09:15:25;;;;;;;3.25;2.13;;;22.00;75.30;;;;;;4985581;28;89440;-37
2022/06/16 09:18:13;;;;;;;11.50;2.67;;;22.20;78.30;;;;;;4990178;28;88411;-36
2022/06/16 09:20:50;;;;;;;2.90;2.45;;;22.40;77.60;;;;;;4996550;28;90296;-36
2022/06/16 09:23:19;;;;;;;2.85;2.65;;;22.50;77.90;;;;;;4999415;28;90229;-35
2022/06/16 09:26:13;;;;;;;3.47;2.30;;;22.50;75.50;;;;;;4999607;28;89818;-34
2022/06/16 09:28:54;;;;;;;4.15;2.40;;;22.90;87.60;;;;;;4999422;28;88605;-34
2022/06/16 09:31:40;;;;;;;2.33;2.13;;;23.00;74.00;;;;;;5000078;28;90212;-35
2022/06/16 09:34:15;;;;;;;5.50;2.70;;;23.40;71.70;;;;;;4996239;28;91098;-34
2022/06/16 09:36:47;;;;;;;2.95;2.58;;;22.70;62.90;;;;;;4990100;28;90176;-33
2022/06/16 09:39:25;;;;;;;2.40;2.15;;;22.70;65.10;;;;;;4999733;28;89171;-37
2022/06/16 09:45:11;;;;;;;3.20;2.90;;;22.20;64.40;;;;;;4998667;28;89688;-36
2022/06/16 09:47:49;;;;;;;5.85;3.13;;;22.40;69.10;;;;;;4998934;28;89433;-35
2022/06/16 09:50:31;;;;;;;3.70;3.28;;;22.30;65.20;;;;;;4999867;28;89563;-33
2022/06/16 09:53:34;;;;;;;4.13;3.72;;;22.30;68.60;;;;;;4987383;28;92013;-34
2022/06/16 09:56:20;;;;;;;2.83;2.60;;;22.30;68.90;;;;;;4981746;28;90999;-35
2022/06/16 09:58:52;;;;;;;4.28;3.42;;;22.50;66.80;;;;;;4999614;28;90577;-36
2022/06/16 10:01:20;;;;;;;4.93;3.33;;;22.70;67.70;;;;;;4985664;28;88518;-37
2022/06/16 10:03:49;;;;;;;3.40;3.10;;;22.60;66.80;;;;;;4999074;28;90142;-36
2022/06/16 10:06:36;;;;;;;3.50;2.67;;;22.90;68.80;;;;;;4999467;28;89822;-35
2022/06/16 10:09:39;;;;;;;5.07;3.40;;;23.10;72.50;;;;;;4999950;28;89072;-34
2022/06/16 10:12:12;;;;;;;4.03;3.20;;;23.10;66.30;;;;;;4999757;28;89437;-35
2022/06/16 10:14:44;;;;;;;5.28;2.80;;;23.00;63.20;;;;;;4999084;28;90099;-37
2022/06/16 10:17:12;;;;;;;6.70;3.58;;;22.60;65.10;;;;;;4999724;28;88942;-36
2022/06/16 10:19:45;;;;;;;4.78;4.03;;;22.70;66.90;;;;;;4986693;28;89836;-36
2022/06/16 10:22:19;;;;;;;2.92;2.72;;;22.70;70.00;;;;;;4998866;28;88362;-35
2022/06/16 10:25:08;;;;;;;3.38;2.90;;;22.10;66.00;;;;;;4998850;28;90218;-35
2022/06/16 10:27:41;;;;;;;3.35;3.05;;;22.00;65.10;;;;;;4998962;28;89897;-39
2022/06/16 10:30:16;;;;;;;7.68;3.90;;;21.80;73.50;;;;;;4999359;28;90291;-39
2022/06/16 10:32:56;;;;;;;4.10;3.13;;;21.70;81.20;;;;;;4998747;28;89127;-33
2022/06/16 10:35:22;;;;;;;5.53;3.47;;;21.50;77.80;;;;;;4996873;28;114655;-37
2022/06/16 10:37:52;;;;;;;4.65;3.60;;;21.50;75.40;;;;;;4997836;28;89500;-35
2022/06/16 10:40:31;;;;;;;3.95;3.08;;;21.50;74.80;;;;;;4998781;28;89718;-35
2022/06/16 10:43:07;;;;;;;3.67;2.90;;;21.80;80.50;;;;;;4998370;28;89742;-34
2022/06/16 10:45:35;;;;;;;3.05;2.72;;;22.00;76.80;;;;;;4999711;28;90532;-34
2022/06/16 10:48:04;;;;;;;7.20;3.45;;;22.20;90.00;;;;;;4998432;28;93148;-39
2022/06/16 10:50:56;;;;;;;5.60;3.90;;;22.20;74.40;;;;;;4998376;28;90321;-36
2022/06/16 10:53:26;;;;;;;6.40;3.30;;;22.20;83.90;;;;;;4998408;28;88993;-33
2022/06/16 10:55:57;;;;;;;4.93;3.00;;;22.30;78.30;;;;;;4997722;28;90339;-35
2022/06/16 10:58:25;;;;;;;6.07;5.03;;;22.30;78.40;;;;;;4999099;28;90965;-35
2022/06/16 11:01:29;;;;;;;4.18;3.35;;;22.00;74.30;;;;;;4997433;28;89363;-38
2022/06/16 11:04:04;;;;;;;11.10;4.38;;;22.00;76.30;;;;;;4997990;28;89651;-37
2022/06/16 11:06:30;;;;;;;4.40;3.90;;;22.40;95.90;;;;;;4998232;28;90204;-38
2022/06/16 11:09:04;;;;;;;4.88;4.35;;;22.50;77.90;;;;;;4997454;28;89610;-36
2022/06/16 11:11:40;;;;;;;6.80;4.32;;;22.40;82.70;;;;;;4998847;28;89389;-36
2022/06/16 11:14:12;;;;;;;12.60;4.40;;;22.30;80.00;;;;;;4996483;28;88671;-35
2022/06/16 11:16:47;;;;;;;6.25;4.35;;;22.30;87.50;;;;;;4988076;28;90234;-34
2022/06/16 11:19:26;;;;;;;5.07;4.35;;;22.30;82.80;;;;;;4977437;28;89797;-37
2022/06/16 11:21:52;;;;;;;8.30;4.75;;;22.30;82.20;;;;;;4997641;28;89914;-35
2022/06/16 11:24:30;;;;;;;6.20;4.47;;;22.40;96.40;;;;;;4997962;28;87719;-36
2022/06/16 11:27:22;;;;;;;;;;;22.80;94.10;;;;;;4992152;28;89983;-35
2022/06/16 11:29:47;;;;;;;6.82;4.95;;;22.80;81.50;;;;;;4994291;28;89434;-36
2022/06/16 11:32:31;;;;;;;5.10;4.60;;;22.70;78.10;;;;;;4998358;28;90590;-33
2022/06/16 11:34:57;;;;;;;5.32;4.82;;;22.70;90.60;;;;;;4997923;28;88940;-36
2022/06/16 11:37:36;;;;;;;4.90;4.18;;;22.80;74.40;;;;;;4997927;28;90169;-34
2022/06/16 11:40:04;;;;;;;4.60;4.20;;;22.80;82.90;;;;;;4997872;28;90780;-36
2022/06/16 11:42:50;;;;;;;5.07;4.25;;;23.00;92.50;;;;;;4997918;28;90352;-36
2022/06/16 11:45:38;;;;;;;6.20;4.43;;;23.00;87.50;;;;;;4996805;28;87584;-36
2022/06/16 11:48:19;;;;;;;;;;;23.00;81.30;;;;;;4997987;28;90025;-34
2022/06/16 11:51:08;;;;;;;5.68;4.13;;;22.80;90.60;;;;;;4998485;28;91172;-37
2022/06/16 11:54:05;;;;;;;11.35;3.95;;;22.70;85.10;;;;;;4997866;28;88623;-34
2022/06/16 11:56:52;;;;;;;4.70;4.28;;;22.60;88.40;;;;;;4998050;28;89333;-34
2022/06/16 11:59:30;;;;;;;8.25;4.72;;;22.60;82.30;;;;;;4997402;28;90530;-37
2022/06/16 12:02:37;;;;;;;5.18;4.38;;;22.50;89.90;;;;;;4996670;28;89083;-36
2022/06/16 12:05:03;;;;;;;5.65;4.22;;;22.30;89.00;;;;;;4997285;28;89393;-35
2022/06/16 12:08:00;;;;;;;8.10;5.60;;;22.00;92.90;;;;;;4997311;28;89955;-38
2022/06/16 12:10:32;;;;;;;6.25;4.60;;;21.80;97.40;;;;;;4997807;28;89969;-35
2022/06/16 12:13:22;;;;;;;4.55;4.15;;;21.60;99.30;;;;;;4996266;28;89738;-34
2022/06/16 12:16:01;;;;;;;5.85;5.10;;;21.70;96.80;;;;;;4985873;28;89472;-36
2022/06/16 12:18:45;;;;;;;5.30;4.57;;;21.90;96.20;;;;;;4994254;28;89997;-34
2022/06/16 12:21:34;;;;;;;4.95;4.10;;;22.10;90.70;;;;;;4996925;28;89362;-35
2022/06/16 12:24:21;;;;;;;5.97;4.38;;;22.30;98.50;;;;;;4987843;28;89632;-36
2022/06/16 12:27:01;;;;;;;5.55;4.28;;;22.30;92.90;;;;;;4996559;28;90292;-34
2022/06/16 12:30:02;;;;;;;4.68;3.83;;;22.40;97.20;;;;;;4997371;28;89465;-37
2022/06/16 12:33:00;;;;;;;4.43;4.03;;;22.20;83.50;;;;;;4996317;28;88356;-37
2022/06/16 12:35:46;;;;;;;7.07;5.28;;;22.10;93.60;;;;;;4982598;28;90835;-36
2022/06/16 12:38:54;;;;;;;7.82;4.72;;;22.30;93.90;;;;;;4995433;28;90680;-35
2022/06/16 12:41:25;;;;;;;7.38;4.32;;;22.30;89.00;;;;;;4980803;28;88358;-35
2022/06/16 12:44:39;;;;;;;4.50;3.47;;;22.40;80.70;;;;;;4995745;28;90309;-38
2022/06/16 12:47:13;;;;;;;5.28;4.82;;;22.50;88.80;;;;;;4994736;28;90086;-35
2022/06/16 12:49:45;;;;;;;4.55;3.70;;;22.40;90.50;;;;;;4996707;28;89025;-33
2022/06/16 12:52:38;;;;;;;6.03;4.25;;;22.40;93.40;;;;;;4996870;28;88804;-37
2022/06/16 12:55:06;;;;;;;4.63;4.20;;;22.60;92.40;;;;;;4986650;28;89858;-36
2022/06/16 12:57:36;;;;;;;6.90;4.07;;;22.50;88.20;;;;;;5000173;28;89804;-35
2022/06/16 13:02:50;;;;;;;6.97;4.22;;;22.60;93.50;;;;;;4958287;28;90029;-38
2022/06/16 13:05:19;;;;;;;4.55;4.15;;;22.50;92.50;;;;;;4960143;28;91592;-34
2022/06/16 13:07:49;;;;;;;4.85;4.40;;;22.40;84.20;;;;;;4960263;28;89897;-37
2022/06/16 13:10:15;;;;;;;5.72;5.05;;;22.30;79.80;;;;;;4960746;28;89516;-33
2022/06/16 13:12:48;;;;;;;8.15;4.70;;;22.20;73.40;;;;;;4960112;28;88892;-35
2022/06/16 13:15:37;;;;;;;7.32;4.15;;;22.10;75.60;;;;;;4960264;28;90356;-34
2022/06/16 13:18:14;;;;;;;5.20;4.30;;;22.20;76.80;;;;;;4960954;28;89770;-35
2022/06/16 13:20:43;;;;;;;4.82;4.40;;;22.20;86.40;;;;;;4960314;28;91164;-37
2022/06/16 13:23:16;;;;;;;4.47;4.03;;;22.30;78.20;;;;;;4959781;28;87994;-35
2022/06/16 13:25:42;;;;;;;6.65;4.18;;;22.30;84.30;;;;;;4959644;28;90143;-36
2022/06/16 13:28:26;;;;;;;6.00;4.30;;;22.40;78.30;;;;;;4959103;28;90805;-35
2022/06/16 13:31:10;;;;;;;4.93;4.43;;;22.50;71.30;;;;;;4960045;28;91165;-36
2022/06/16 13:33:55;;;;;;;5.20;4.25;;;22.60;77.30;;;;;;4959222;28;89197;-39
2022/06/16 13:36:23;;;;;;;4.05;3.75;;;22.70;74.20;;;;;;4959663;28;89872;-39
2022/06/16 13:38:51;;;;;;;6.25;4.38;;;22.60;83.50;;;;;;4959447;28;89482;-34
2022/06/16 13:41:45;;;;;;;4.10;3.70;;;22.70;75.80;;;;;;4959856;28;89122;-35
2022/06/16 13:44:14;;;;;;;4.35;3.95;;;22.70;86.90;;;;;;4960104;28;89878;-35